sensor_id;sensor_type;location;lat;lon;timestamp;P1;durP1;ratioP1;P2;durP2;ratioP2
27925;SDS011;15267;47.838;12.128;2023-04-05T00:00:27;10.93;;;7.80;;
27925;SDS011;15267;47.838;12.128;2023-04-05T00:02:55;9.63;;;7.55;;
27925;SDS011;15267;47.838;12.128;2023-04-05T00:05:21;12.75;;;7.72;;
27925;SDS011;15267;47.838;12.128;2023-04-05T00:07:55;13.82;;;7.85;;
27925;SDS011;15267;47.838;12.128;2023-04-05T00:10:21;10.98;;;7.60;;
27925;SDS011;15267;47.838;12.128;2023-04-05T00:12:47;10.65;;;7.32;;
27925;SDS011;15267;47.838;12.128;2023-04-05T00:15:14;11.07;;;7.55;;
27925;SDS011;15267;47.838;12.128;2023-04-05T00:17:40;10.15;;;7.35;;
27925;SDS011;15267;47.838;12.128;2023-04-05T00:20:07;9.77;;;7.30;;
27925;SDS011;15267;47.838;12.128;2023-04-05T00:22:35;9.90;;;7.20;;
27925;SDS011;15267;47.838;12.128;2023-04-05T00:25:02;11.05;;;7.47;;
27925;SDS011;15267;47.838;12.128;2023-04-05T00:27:28;13.18;;;8.45;;
27925;SDS011;15267;47.838;12.128;2023-04-05T00:29:54;11.88;;;8.30;;
27925;SDS011;15267;47.838;12.128;2023-04-05T00:32:20;11.52;;;8.00;;
27925;SDS011;15267;47.838;12.128;2023-04-05T00:34:46;12.80;;;8.13;;
27925;SDS011;15267;47.838;12.128;2023-04-05T00:37:12;10.70;;;7.57;;
27925;SDS011;15267;47.838;12.128;2023-04-05T00:39:38;10.55;;;8.13;;
27925;SDS011;15267;47.838;12.128;2023-04-05T00:42:04;10.45;;;8.00;;
27925;SDS011;15267;47.838;12.128;2023-04-05T00:44:31;10.38;;;8.27;;
27925;SDS011;15267;47.838;12.128;2023-04-05T00:47:01;10.52;;;8.13;;
27925;SDS011;15267;47.838;12.128;2023-04-05T00:49:27;11.45;;;8.30;;
27925;SDS011;15267;47.838;12.128;2023-04-05T00:51:55;21.23;;;12.95;;
27925;SDS011;15267;47.838;12.128;2023-04-05T00:54:21;19.98;;;12.10;;
27925;SDS011;15267;47.838;12.128;2023-04-05T00:56:47;16.27;;;10.30;;
27925;SDS011;15267;47.838;12.128;2023-04-05T00:59:16;13.48;;;9.93;;
27925;SDS011;15267;47.838;12.128;2023-04-05T01:01:42;14.05;;;10.10;;
27925;SDS011;15267;47.838;12.128;2023-04-05T01:04:18;11.93;;;9.30;;
27925;SDS011;15267;47.838;12.128;2023-04-05T01:12:08;15.38;;;9.68;;
27925;SDS011;15267;47.838;12.128;2023-04-05T01:14:46;11.27;;;8.68;;
27925;SDS011;15267;47.838;12.128;2023-04-05T01:17:14;12.73;;;8.65;;
27925;SDS011;15267;47.838;12.128;2023-04-05T01:19:40;11.65;;;7.82;;
27925;SDS011;15267;47.838;12.128;2023-04-05T01:22:46;11.32;;;8.57;;
27925;SDS011;15267;47.838;12.128;2023-04-05T01:30:20;11.98;;;9.00;;
27925;SDS011;15267;47.838;12.128;2023-04-05T01:35:31;12.48;;;10.40;;
27925;SDS011;15267;47.838;12.128;2023-04-05T01:38:00;12.32;;;9.77;;
27925;SDS011;15267;47.838;12.128;2023-04-05T01:40:27;14.05;;;10.52;;
27925;SDS011;15267;47.838;12.128;2023-04-05T01:42:53;12.77;;;9.63;;
27925;SDS011;15267;47.838;12.128;2023-04-05T01:45:19;12.27;;;9.18;;
27925;SDS011;15267;47.838;12.128;2023-04-05T01:47:45;11.50;;;7.80;;
27925;SDS011;15267;47.838;12.128;2023-04-05T01:50:11;12.80;;;8.18;;
27925;SDS011;15267;47.838;12.128;2023-04-05T01:52:37;12.88;;;9.05;;
27925;SDS011;15267;47.838;12.128;2023-04-05T01:55:03;11.60;;;8.23;;
27925;SDS011;15267;47.838;12.128;2023-04-05T01:57:30;10.75;;;8.25;;
27925;SDS011;15267;47.838;12.128;2023-04-05T01:59:55;9.98;;;8.07;;
27925;SDS011;15267;47.838;12.128;2023-04-05T02:02:21;12.63;;;8.73;;
27925;SDS011;15267;47.838;12.128;2023-04-05T02:04:47;13.38;;;8.30;;
27925;SDS011;15267;47.838;12.128;2023-04-05T02:07:13;11.43;;;8.40;;
27925;SDS011;15267;47.838;12.128;2023-04-05T02:09:39;12.70;;;7.75;;
27925;SDS011;15267;47.838;12.128;2023-04-05T02:12:05;13.00;;;8.68;;
27925;SDS011;15267;47.838;12.128;2023-04-05T02:14:31;15.02;;;9.13;;
27925;SDS011;15267;47.838;12.128;2023-04-05T02:16:57;11.73;;;8.02;;
27925;SDS011;15267;47.838;12.128;2023-04-05T02:19:26;12.70;;;8.73;;
27925;SDS011;15267;47.838;12.128;2023-04-05T02:21:53;12.93;;;9.20;;
27925;SDS011;15267;47.838;12.128;2023-04-05T02:24:19;12.32;;;8.45;;
27925;SDS011;15267;47.838;12.128;2023-04-05T02:26:45;12.02;;;8.57;;
27925;SDS011;15267;47.838;12.128;2023-04-05T02:29:11;10.35;;;7.75;;
27925;SDS011;15267;47.838;12.128;2023-04-05T02:31:37;12.32;;;8.15;;
27925;SDS011;15267;47.838;12.128;2023-04-05T02:34:03;11.13;;;8.65;;
27925;SDS011;15267;47.838;12.128;2023-04-05T02:36:33;10.65;;;8.23;;
27925;SDS011;15267;47.838;12.128;2023-04-05T02:38:59;10.40;;;7.75;;
27925;SDS011;15267;47.838;12.128;2023-04-05T02:41:25;9.35;;;7.78;;
27925;SDS011;15267;47.838;12.128;2023-04-05T02:43:51;11.65;;;8.18;;
27925;SDS011;15267;47.838;12.128;2023-04-05T02:46:16;12.48;;;8.10;;
27925;SDS011;15267;47.838;12.128;2023-04-05T02:48:43;9.90;;;8.27;;
27925;SDS011;15267;47.838;12.128;2023-04-05T02:51:09;13.00;;;8.35;;
27925;SDS011;15267;47.838;12.128;2023-04-05T02:53:35;11.98;;;8.38;;
27925;SDS011;15267;47.838;12.128;2023-04-05T02:56:01;10.32;;;8.45;;
27925;SDS011;15267;47.838;12.128;2023-04-05T02:58:27;12.77;;;8.52;;
27925;SDS011;15267;47.838;12.128;2023-04-05T03:00:53;11.88;;;8.43;;
27925;SDS011;15267;47.838;12.128;2023-04-05T03:03:20;9.77;;;8.13;;
27925;SDS011;15267;47.838;12.128;2023-04-05T03:05:46;12.15;;;7.63;;
27925;SDS011;15267;47.838;12.128;2023-04-05T03:08:13;13.95;;;8.40;;
27925;SDS011;15267;47.838;12.128;2023-04-05T03:10:45;11.25;;;7.68;;
27925;SDS011;15267;47.838;12.128;2023-04-05T03:13:12;10.82;;;8.48;;
27925;SDS011;15267;47.838;12.128;2023-04-05T03:15:38;12.75;;;8.30;;
27925;SDS011;15267;47.838;12.128;2023-04-05T03:18:05;10.85;;;7.95;;
27925;SDS011;15267;47.838;12.128;2023-04-05T03:20:32;12.02;;;8.57;;
27925;SDS011;15267;47.838;12.128;2023-04-05T03:22:59;12.60;;;7.63;;
27925;SDS011;15267;47.838;12.128;2023-04-05T03:25:25;11.77;;;8.05;;
27925;SDS011;15267;47.838;12.128;2023-04-05T03:27:51;10.27;;;7.88;;
27925;SDS011;15267;47.838;12.128;2023-04-05T03:30:19;9.35;;;7.18;;
27925;SDS011;15267;47.838;12.128;2023-04-05T03:32:45;10.55;;;7.65;;
27925;SDS011;15267;47.838;12.128;2023-04-05T03:35:11;11.25;;;7.70;;
27925;SDS011;15267;47.838;12.128;2023-04-05T03:37:40;10.00;;;7.45;;
27925;SDS011;15267;47.838;12.128;2023-04-05T03:40:06;14.98;;;8.23;;
27925;SDS011;15267;47.838;12.128;2023-04-05T03:42:34;13.80;;;7.88;;
27925;SDS011;15267;47.838;12.128;2023-04-05T03:45:00;13.82;;;7.97;;
27925;SDS011;15267;47.838;12.128;2023-04-05T03:47:26;11.10;;;7.32;;
27925;SDS011;15267;47.838;12.128;2023-04-05T03:49:52;13.50;;;8.63;;
27925;SDS011;15267;47.838;12.128;2023-04-05T03:52:18;13.77;;;8.25;;
27925;SDS011;15267;47.838;12.128;2023-04-05T03:54:44;10.95;;;7.50;;
27925;SDS011;15267;47.838;12.128;2023-04-05T03:57:10;10.25;;;7.30;;
27925;SDS011;15267;47.838;12.128;2023-04-05T03:59:36;11.18;;;8.18;;
27925;SDS011;15267;47.838;12.128;2023-04-05T04:02:02;11.43;;;8.15;;
27925;SDS011;15267;47.838;12.128;2023-04-05T04:04:28;12.70;;;8.23;;
27925;SDS011;15267;47.838;12.128;2023-04-05T04:06:54;11.35;;;7.72;;
27925;SDS011;15267;47.838;12.128;2023-04-05T04:09:20;13.23;;;7.70;;
27925;SDS011;15267;47.838;12.128;2023-04-05T04:11:47;13.23;;;8.25;;
27925;SDS011;15267;47.838;12.128;2023-04-05T04:14:12;10.38;;;7.38;;
27925;SDS011;15267;47.838;12.128;2023-04-05T04:16:38;10.77;;;7.50;;
27925;SDS011;15267;47.838;12.128;2023-04-05T04:19:04;14.00;;;8.07;;
27925;SDS011;15267;47.838;12.128;2023-04-05T04:21:30;13.13;;;8.70;;
27925;SDS011;15267;47.838;12.128;2023-04-05T04:23:57;9.85;;;7.32;;
27925;SDS011;15267;47.838;12.128;2023-04-05T04:26:24;13.40;;;8.38;;
27925;SDS011;15267;47.838;12.128;2023-04-05T04:28:53;11.73;;;8.02;;
27925;SDS011;15267;47.838;12.128;2023-04-05T04:31:19;15.98;;;7.93;;
27925;SDS011;15267;47.838;12.128;2023-04-05T04:33:48;11.68;;;7.82;;
27925;SDS011;15267;47.838;12.128;2023-04-05T04:36:15;13.02;;;7.80;;
27925;SDS011;15267;47.838;12.128;2023-04-05T04:38:42;11.25;;;8.05;;
27925;SDS011;15267;47.838;12.128;2023-04-05T04:41:09;12.50;;;7.10;;
27925;SDS011;15267;47.838;12.128;2023-04-05T04:43:35;14.60;;;8.13;;
27925;SDS011;15267;47.838;12.128;2023-04-05T04:46:07;14.00;;;8.55;;
27925;SDS011;15267;47.838;12.128;2023-04-05T04:48:38;13.60;;;9.98;;
27925;SDS011;15267;47.838;12.128;2023-04-05T04:51:06;15.98;;;10.40;;
27925;SDS011;15267;47.838;12.128;2023-04-05T04:53:32;17.77;;;10.38;;
27925;SDS011;15267;47.838;12.128;2023-04-05T04:55:58;21.25;;;10.95;;
27925;SDS011;15267;47.838;12.128;2023-04-05T04:58:23;35.28;;;16.02;;
27925;SDS011;15267;47.838;12.128;2023-04-05T05:00:50;22.80;;;13.07;;
27925;SDS011;15267;47.838;12.128;2023-04-05T05:03:17;19.25;;;11.80;;
27925;SDS011;15267;47.838;12.128;2023-04-05T05:05:48;26.13;;;13.30;;
27925;SDS011;15267;47.838;12.128;2023-04-05T05:08:14;21.45;;;12.35;;
27925;SDS011;15267;47.838;12.128;2023-04-05T05:10:40;22.63;;;11.98;;
27925;SDS011;15267;47.838;12.128;2023-04-05T05:13:06;21.77;;;11.80;;
27925;SDS011;15267;47.838;12.128;2023-04-05T05:15:32;25.90;;;13.60;;
27925;SDS011;15267;47.838;12.128;2023-04-05T05:17:58;25.60;;;12.27;;
27925;SDS011;15267;47.838;12.128;2023-04-05T05:20:24;20.23;;;11.88;;
27925;SDS011;15267;47.838;12.128;2023-04-05T05:22:52;26.67;;;12.85;;
27925;SDS011;15267;47.838;12.128;2023-04-05T05:25:18;32.75;;;15.45;;
27925;SDS011;15267;47.838;12.128;2023-04-05T05:27:48;25.80;;;13.23;;
27925;SDS011;15267;47.838;12.128;2023-04-05T05:30:14;22.20;;;12.35;;
27925;SDS011;15267;47.838;12.128;2023-04-05T05:32:41;29.40;;;11.90;;
27925;SDS011;15267;47.838;12.128;2023-04-05T05:35:07;20.63;;;11.57;;
27925;SDS011;15267;47.838;12.128;2023-04-05T05:37:33;24.30;;;12.98;;
27925;SDS011;15267;47.838;12.128;2023-04-05T05:40:00;21.20;;;12.32;;
27925;SDS011;15267;47.838;12.128;2023-04-05T05:42:27;17.58;;;12.48;;
27925;SDS011;15267;47.838;12.128;2023-04-05T05:44:53;18.45;;;12.65;;
27925;SDS011;15267;47.838;12.128;2023-04-05T05:47:19;22.33;;;11.57;;
27925;SDS011;15267;47.838;12.128;2023-04-05T05:49:45;21.15;;;12.00;;
27925;SDS011;15267;47.838;12.128;2023-04-05T05:52:13;19.60;;;11.63;;
27925;SDS011;15267;47.838;12.128;2023-04-05T05:54:39;21.38;;;12.57;;
27925;SDS011;15267;47.838;12.128;2023-04-05T05:57:05;20.55;;;12.23;;
27925;SDS011;15267;47.838;12.128;2023-04-05T05:59:31;18.80;;;11.88;;
27925;SDS011;15267;47.838;12.128;2023-04-05T06:01:57;17.95;;;11.98;;
27925;SDS011;15267;47.838;12.128;2023-04-05T06:04:23;17.40;;;12.20;;
27925;SDS011;15267;47.838;12.128;2023-04-05T06:06:49;17.00;;;11.35;;
27925;SDS011;15267;47.838;12.128;2023-04-05T06:09:15;19.05;;;11.93;;
27925;SDS011;15267;47.838;12.128;2023-04-05T06:11:42;18.73;;;11.15;;
27925;SDS011;15267;47.838;12.128;2023-04-05T06:14:07;14.52;;;10.98;;
27925;SDS011;15267;47.838;12.128;2023-04-05T06:16:33;19.40;;;11.38;;
27925;SDS011;15267;47.838;12.128;2023-04-05T06:19:00;17.13;;;12.10;;
27925;SDS011;15267;47.838;12.128;2023-04-05T06:21:26;17.42;;;11.45;;
27925;SDS011;15267;47.838;12.128;2023-04-05T06:23:52;16.45;;;11.57;;
27925;SDS011;15267;47.838;12.128;2023-04-05T06:26:19;19.02;;;11.40;;
27925;SDS011;15267;47.838;12.128;2023-04-05T06:28:46;19.40;;;11.48;;
27925;SDS011;15267;47.838;12.128;2023-04-05T06:31:13;16.75;;;10.85;;
27925;SDS011;15267;47.838;12.128;2023-04-05T06:33:40;19.65;;;11.18;;
27925;SDS011;15267;47.838;12.128;2023-04-05T06:36:06;20.17;;;10.85;;
27925;SDS011;15267;47.838;12.128;2023-04-05T06:38:32;17.70;;;10.20;;
27925;SDS011;15267;47.838;12.128;2023-04-05T06:40:58;19.23;;;11.25;;
27925;SDS011;15267;47.838;12.128;2023-04-05T06:43:24;17.05;;;10.43;;
27925;SDS011;15267;47.838;12.128;2023-04-05T06:45:50;15.82;;;10.30;;
27925;SDS011;15267;47.838;12.128;2023-04-05T06:48:16;14.57;;;10.13;;
27925;SDS011;15267;47.838;12.128;2023-04-05T06:50:42;14.57;;;9.65;;
27925;SDS011;15267;47.838;12.128;2023-04-05T06:53:08;19.27;;;9.95;;
27925;SDS011;15267;47.838;12.128;2023-04-05T06:55:35;16.30;;;10.10;;
27925;SDS011;15267;47.838;12.128;2023-04-05T06:58:01;13.70;;;9.75;;
27925;SDS011;15267;47.838;12.128;2023-04-05T07:00:27;14.93;;;9.68;;
27925;SDS011;15267;47.838;12.128;2023-04-05T07:02:53;13.45;;;9.18;;
27925;SDS011;15267;47.838;12.128;2023-04-05T07:05:19;13.60;;;8.85;;
27925;SDS011;15267;47.838;12.128;2023-04-05T07:07:45;12.18;;;8.88;;
27925;SDS011;15267;47.838;12.128;2023-04-05T07:10:12;14.55;;;7.97;;
27925;SDS011;15267;47.838;12.128;2023-04-05T07:12:38;13.52;;;8.82;;
27925;SDS011;15267;47.838;12.128;2023-04-05T07:15:05;15.60;;;9.98;;
27925;SDS011;15267;47.838;12.128;2023-04-05T07:17:31;13.98;;;9.48;;
27925;SDS011;15267;47.838;12.128;2023-04-05T07:19:57;17.65;;;9.50;;
27925;SDS011;15267;47.838;12.128;2023-04-05T07:22:23;14.30;;;9.45;;
27925;SDS011;15267;47.838;12.128;2023-04-05T07:24:49;13.43;;;9.50;;
27925;SDS011;15267;47.838;12.128;2023-04-05T07:27:16;11.50;;;8.25;;
27925;SDS011;15267;47.838;12.128;2023-04-05T07:29:42;13.27;;;9.02;;
27925;SDS011;15267;47.838;12.128;2023-04-05T07:32:08;15.38;;;8.80;;
27925;SDS011;15267;47.838;12.128;2023-04-05T07:34:34;12.18;;;8.80;;
27925;SDS011;15267;47.838;12.128;2023-04-05T07:37:00;16.02;;;8.65;;
27925;SDS011;15267;47.838;12.128;2023-04-05T07:39:27;14.13;;;8.95;;
27925;SDS011;15267;47.838;12.128;2023-04-05T07:41:53;13.10;;;8.50;;
27925;SDS011;15267;47.838;12.128;2023-04-05T07:44:19;12.32;;;8.20;;
27925;SDS011;15267;47.838;12.128;2023-04-05T07:46:45;12.88;;;8.25;;
27925;SDS011;15267;47.838;12.128;2023-04-05T07:49:11;10.95;;;7.22;;
27925;SDS011;15267;47.838;12.128;2023-04-05T07:51:37;12.43;;;6.95;;
27925;SDS011;15267;47.838;12.128;2023-04-05T07:54:04;13.00;;;7.38;;
27925;SDS011;15267;47.838;12.128;2023-04-05T07:56:30;12.18;;;7.18;;
27925;SDS011;15267;47.838;12.128;2023-04-05T07:58:57;15.65;;;7.72;;
27925;SDS011;15267;47.838;12.128;2023-04-05T08:01:23;10.95;;;7.75;;
27925;SDS011;15267;47.838;12.128;2023-04-05T08:03:52;14.25;;;7.50;;
27925;SDS011;15267;47.838;12.128;2023-04-05T08:06:18;11.10;;;7.53;;
27925;SDS011;15267;47.838;12.128;2023-04-05T08:08:45;10.13;;;6.97;;
27925;SDS011;15267;47.838;12.128;2023-04-05T08:11:11;10.77;;;7.38;;
27925;SDS011;15267;47.838;12.128;2023-04-05T08:13:37;9.57;;;6.78;;
27925;SDS011;15267;47.838;12.128;2023-04-05T08:16:07;12.45;;;7.40;;
27925;SDS011;15267;47.838;12.128;2023-04-05T08:18:33;16.73;;;7.88;;
27925;SDS011;15267;47.838;12.128;2023-04-05T08:20:59;11.80;;;7.53;;
27925;SDS011;15267;47.838;12.128;2023-04-05T08:23:25;12.48;;;7.20;;
27925;SDS011;15267;47.838;12.128;2023-04-05T08:25:51;10.35;;;7.43;;
27925;SDS011;15267;47.838;12.128;2023-04-05T08:28:18;11.35;;;7.38;;
27925;SDS011;15267;47.838;12.128;2023-04-05T08:30:44;10.32;;;7.25;;
27925;SDS011;15267;47.838;12.128;2023-04-05T08:33:10;10.70;;;6.95;;
27925;SDS011;15267;47.838;12.128;2023-04-05T08:35:36;10.88;;;7.15;;
27925;SDS011;15267;47.838;12.128;2023-04-05T08:38:03;8.38;;;6.50;;
27925;SDS011;15267;47.838;12.128;2023-04-05T08:40:38;8.45;;;6.50;;
27925;SDS011;15267;47.838;12.128;2023-04-05T08:45:49;9.32;;;7.22;;
27925;SDS011;15267;47.838;12.128;2023-04-05T08:48:18;9.30;;;6.10;;
27925;SDS011;15267;47.838;12.128;2023-04-05T08:50:51;19.20;;;7.03;;
27925;SDS011;15267;47.838;12.128;2023-04-05T08:53:17;19.65;;;6.85;;
27925;SDS011;15267;47.838;12.128;2023-04-05T08:55:43;10.38;;;6.20;;
27925;SDS011;15267;47.838;12.128;2023-04-05T08:58:12;8.52;;;6.03;;
27925;SDS011;15267;47.838;12.128;2023-04-05T09:00:39;10.40;;;6.68;;
27925;SDS011;15267;47.838;12.128;2023-04-05T09:03:05;8.40;;;6.45;;
27925;SDS011;15267;47.838;12.128;2023-04-05T09:05:31;9.95;;;6.32;;
27925;SDS011;15267;47.838;12.128;2023-04-05T09:07:58;9.18;;;6.18;;
27925;SDS011;15267;47.838;12.128;2023-04-05T09:10:25;9.38;;;5.97;;
27925;SDS011;15267;47.838;12.128;2023-04-05T09:12:52;8.20;;;5.63;;
27925;SDS011;15267;47.838;12.128;2023-04-05T09:15:18;8.25;;;5.70;;
27925;SDS011;15267;47.838;12.128;2023-04-05T09:17:48;9.05;;;5.93;;
27925;SDS011;15267;47.838;12.128;2023-04-05T09:20:14;11.55;;;5.95;;
27925;SDS011;15267;47.838;12.128;2023-04-05T09:22:43;7.45;;;5.30;;
27925;SDS011;15267;47.838;12.128;2023-04-05T09:25:10;7.15;;;4.65;;
27925;SDS011;15267;47.838;12.128;2023-04-05T09:27:52;8.80;;;5.75;;
27925;SDS011;15267;47.838;12.128;2023-04-05T09:30:20;6.10;;;5.00;;
27925;SDS011;15267;47.838;12.128;2023-04-05T09:32:46;7.00;;;4.65;;
27925;SDS011;15267;47.838;12.128;2023-04-05T09:35:18;5.90;;;4.70;;
27925;SDS011;15267;47.838;12.128;2023-04-05T09:40:12;7.32;;;4.53;;
27925;SDS011;15267;47.838;12.128;2023-04-05T09:42:42;13.32;;;5.40;;
27925;SDS011;15267;47.838;12.128;2023-04-05T09:45:11;8.88;;;4.82;;
27925;SDS011;15267;47.838;12.128;2023-04-05T09:47:37;5.72;;;4.88;;
27925;SDS011;15267;47.838;12.128;2023-04-05T09:52:36;7.25;;;4.70;;
27925;SDS011;15267;47.838;12.128;2023-04-05T09:55:03;8.20;;;4.85;;
27925;SDS011;15267;47.838;12.128;2023-04-05T09:57:35;5.75;;;4.38;;
27925;SDS011;15267;47.838;12.128;2023-04-05T10:00:02;5.85;;;4.35;;
27925;SDS011;15267;47.838;12.128;2023-04-05T10:02:38;6.45;;;4.70;;
27925;SDS011;15267;47.838;12.128;2023-04-05T10:05:08;5.90;;;4.57;;
27925;SDS011;15267;47.838;12.128;2023-04-05T10:07:40;5.75;;;4.28;;
27925;SDS011;15267;47.838;12.128;2023-04-05T10:10:07;6.88;;;4.30;;
27925;SDS011;15267;47.838;12.128;2023-04-05T10:12:33;5.38;;;4.20;;
27925;SDS011;15267;47.838;12.128;2023-04-05T10:15:02;5.78;;;4.30;;
27925;SDS011;15267;47.838;12.128;2023-04-05T10:20:08;7.50;;;4.72;;
27925;SDS011;15267;47.838;12.128;2023-04-05T10:22:39;7.68;;;4.22;;
27925;SDS011;15267;47.838;12.128;2023-04-05T10:25:12;6.88;;;4.10;;
27925;SDS011;15267;47.838;12.128;2023-04-05T10:27:38;6.03;;;4.55;;
27925;SDS011;15267;47.838;12.128;2023-04-05T10:30:07;5.57;;;4.13;;
27925;SDS011;15267;47.838;12.128;2023-04-05T10:38:26;7.32;;;4.63;;
27925;SDS011;15267;47.838;12.128;2023-04-05T10:41:02;6.45;;;4.78;;
27925;SDS011;15267;47.838;12.128;2023-04-05T10:43:30;7.13;;;4.32;;
27925;SDS011;15267;47.838;12.128;2023-04-05T10:45:56;7.93;;;4.60;;
27925;SDS011;15267;47.838;12.128;2023-04-05T10:48:28;6.43;;;4.80;;
27925;SDS011;15267;47.838;12.128;2023-04-05T10:50:56;5.93;;;4.57;;
27925;SDS011;15267;47.838;12.128;2023-04-05T10:53:22;7.63;;;4.70;;
27925;SDS011;15267;47.838;12.128;2023-04-05T10:55:50;7.15;;;4.55;;
27925;SDS011;15267;47.838;12.128;2023-04-05T10:58:16;8.95;;;4.40;;
27925;SDS011;15267;47.838;12.128;2023-04-05T11:00:43;6.80;;;4.38;;
27925;SDS011;15267;47.838;12.128;2023-04-05T11:03:09;6.20;;;4.55;;
27925;SDS011;15267;47.838;12.128;2023-04-05T11:05:35;7.88;;;4.50;;
27925;SDS011;15267;47.838;12.128;2023-04-05T11:08:03;6.90;;;4.45;;
27925;SDS011;15267;47.838;12.128;2023-04-05T11:10:29;6.35;;;4.25;;
27925;SDS011;15267;47.838;12.128;2023-04-05T11:18:03;6.95;;;4.50;;
27925;SDS011;15267;47.838;12.128;2023-04-05T11:20:38;5.18;;;4.30;;
27925;SDS011;15267;47.838;12.128;2023-04-05T11:23:05;7.65;;;4.57;;
27925;SDS011;15267;47.838;12.128;2023-04-05T11:25:31;6.10;;;4.63;;
27925;SDS011;15267;47.838;12.128;2023-04-05T11:28:02;5.85;;;4.25;;
27925;SDS011;15267;47.838;12.128;2023-04-05T11:30:45;6.43;;;4.68;;
27925;SDS011;15267;47.838;12.128;2023-04-05T11:33:33;8.00;;;4.80;;
27925;SDS011;15267;47.838;12.128;2023-04-05T11:36:00;9.13;;;5.20;;
27925;SDS011;15267;47.838;12.128;2023-04-05T11:38:26;6.38;;;4.80;;
27925;SDS011;15267;47.838;12.128;2023-04-05T11:41:03;7.82;;;4.65;;
27925;SDS011;15267;47.838;12.128;2023-04-05T11:43:29;6.90;;;4.35;;
27925;SDS011;15267;47.838;12.128;2023-04-05T11:45:55;7.78;;;4.60;;
27925;SDS011;15267;47.838;12.128;2023-04-05T11:48:21;9.57;;;5.13;;
27925;SDS011;15267;47.838;12.128;2023-04-05T11:50:47;6.68;;;4.32;;
27925;SDS011;15267;47.838;12.128;2023-04-05T11:53:16;7.25;;;4.40;;
27925;SDS011;15267;47.838;12.128;2023-04-05T11:55:43;10.30;;;5.07;;
27925;SDS011;15267;47.838;12.128;2023-04-05T11:58:13;6.35;;;4.60;;
27925;SDS011;15267;47.838;12.128;2023-04-05T12:00:40;6.90;;;4.75;;
27925;SDS011;15267;47.838;12.128;2023-04-05T12:03:10;7.07;;;4.70;;
27925;SDS011;15267;47.838;12.128;2023-04-05T12:08:15;8.18;;;5.43;;
27925;SDS011;15267;47.838;12.128;2023-04-05T12:10:41;4.78;;;4.00;;
27925;SDS011;15267;47.838;12.128;2023-04-05T12:13:07;6.38;;;4.32;;
27925;SDS011;15267;47.838;12.128;2023-04-05T12:15:37;6.40;;;4.20;;
27925;SDS011;15267;47.838;12.128;2023-04-05T12:18:03;6.78;;;4.20;;
27925;SDS011;15267;47.838;12.128;2023-04-05T12:20:31;11.05;;;5.15;;
27925;SDS011;15267;47.838;12.128;2023-04-05T12:22:57;6.60;;;4.38;;
27925;SDS011;15267;47.838;12.128;2023-04-05T12:25:23;7.90;;;5.00;;
27925;SDS011;15267;47.838;12.128;2023-04-05T12:27:50;6.18;;;4.18;;
27925;SDS011;15267;47.838;12.128;2023-04-05T12:30:16;5.90;;;4.30;;
27925;SDS011;15267;47.838;12.128;2023-04-05T12:32:50;6.00;;;4.00;;
27925;SDS011;15267;47.838;12.128;2023-04-05T12:37:42;5.28;;;4.55;;
27925;SDS011;15267;47.838;12.128;2023-04-05T12:40:08;5.65;;;4.03;;
27925;SDS011;15267;47.838;12.128;2023-04-05T12:42:35;5.32;;;4.00;;
27925;SDS011;15267;47.838;12.128;2023-04-05T12:45:02;4.50;;;3.97;;
27925;SDS011;15267;47.838;12.128;2023-04-05T12:47:29;5.05;;;4.00;;
27925;SDS011;15267;47.838;12.128;2023-04-05T12:49:55;5.57;;;4.10;;
27925;SDS011;15267;47.838;12.128;2023-04-05T12:52:21;4.75;;;3.80;;
27925;SDS011;15267;47.838;12.128;2023-04-05T12:54:53;5.85;;;4.30;;
27925;SDS011;15267;47.838;12.128;2023-04-05T12:57:27;6.05;;;4.50;;
27925;SDS011;15267;47.838;12.128;2023-04-05T12:59:54;5.47;;;4.10;;
27925;SDS011;15267;47.838;12.128;2023-04-05T13:02:20;5.50;;;4.13;;
27925;SDS011;15267;47.838;12.128;2023-04-05T13:04:46;5.78;;;3.78;;
27925;SDS011;15267;47.838;12.128;2023-04-05T13:07:12;5.05;;;4.07;;
27925;SDS011;15267;47.838;12.128;2023-04-05T13:09:38;6.80;;;4.47;;
27925;SDS011;15267;47.838;12.128;2023-04-05T13:12:04;6.50;;;4.22;;
27925;SDS011;15267;47.838;12.128;2023-04-05T13:14:30;7.18;;;4.50;;
27925;SDS011;15267;47.838;12.128;2023-04-05T13:16:56;4.95;;;3.85;;
27925;SDS011;15267;47.838;12.128;2023-04-05T13:19:22;7.75;;;4.32;;
27925;SDS011;15267;47.838;12.128;2023-04-05T13:21:48;7.38;;;4.10;;
27925;SDS011;15267;47.838;12.128;2023-04-05T13:24:14;6.28;;;4.18;;
27925;SDS011;15267;47.838;12.128;2023-04-05T13:26:40;5.90;;;3.92;;
27925;SDS011;15267;47.838;12.128;2023-04-05T13:29:06;5.38;;;3.80;;
27925;SDS011;15267;47.838;12.128;2023-04-05T13:31:32;7.63;;;4.03;;
27925;SDS011;15267;47.838;12.128;2023-04-05T13:33:58;5.60;;;4.07;;
27925;SDS011;15267;47.838;12.128;2023-04-05T13:36:24;4.95;;;3.30;;
27925;SDS011;15267;47.838;12.128;2023-04-05T13:38:50;6.60;;;4.18;;
27925;SDS011;15267;47.838;12.128;2023-04-05T13:41:16;5.13;;;3.85;;
27925;SDS011;15267;47.838;12.128;2023-04-05T13:43:42;6.03;;;4.13;;
27925;SDS011;15267;47.838;12.128;2023-04-05T13:46:08;8.10;;;4.10;;
27925;SDS011;15267;47.838;12.128;2023-04-05T13:48:34;5.07;;;4.10;;
27925;SDS011;15267;47.838;12.128;2023-04-05T13:51:00;5.97;;;4.05;;
27925;SDS011;15267;47.838;12.128;2023-04-05T13:53:26;6.07;;;4.30;;
27925;SDS011;15267;47.838;12.128;2023-04-05T13:55:52;7.65;;;4.32;;
27925;SDS011;15267;47.838;12.128;2023-04-05T13:58:18;6.32;;;3.90;;
27925;SDS011;15267;47.838;12.128;2023-04-05T14:00:44;6.03;;;4.18;;
27925;SDS011;15267;47.838;12.128;2023-04-05T14:03:09;6.30;;;4.07;;
27925;SDS011;15267;47.838;12.128;2023-04-05T14:05:35;6.80;;;4.70;;
27925;SDS011;15267;47.838;12.128;2023-04-05T14:08:01;5.53;;;3.72;;
27925;SDS011;15267;47.838;12.128;2023-04-05T14:10:27;6.32;;;4.40;;
27925;SDS011;15267;47.838;12.128;2023-04-05T14:12:55;4.70;;;4.10;;
27925;SDS011;15267;47.838;12.128;2023-04-05T14:15:21;7.32;;;4.00;;
27925;SDS011;15267;47.838;12.128;2023-04-05T14:17:47;6.65;;;4.43;;
27925;SDS011;15267;47.838;12.128;2023-04-05T14:20:13;5.50;;;4.75;;
27925;SDS011;15267;47.838;12.128;2023-04-05T14:22:39;5.90;;;4.30;;
27925;SDS011;15267;47.838;12.128;2023-04-05T14:25:05;5.10;;;3.70;;
27925;SDS011;15267;47.838;12.128;2023-04-05T14:27:32;6.97;;;4.20;;
27925;SDS011;15267;47.838;12.128;2023-04-05T14:29:59;5.68;;;3.33;;
27925;SDS011;15267;47.838;12.128;2023-04-05T14:32:25;6.15;;;4.05;;
27925;SDS011;15267;47.838;12.128;2023-04-05T14:34:51;5.80;;;3.80;;
27925;SDS011;15267;47.838;12.128;2023-04-05T14:37:17;4.88;;;3.75;;
27925;SDS011;15267;47.838;12.128;2023-04-05T14:39:43;6.90;;;4.90;;
27925;SDS011;15267;47.838;12.128;2023-04-05T14:42:10;5.72;;;4.60;;
27925;SDS011;15267;47.838;12.128;2023-04-05T14:44:36;6.90;;;4.47;;
27925;SDS011;15267;47.838;12.128;2023-04-05T14:47:02;4.90;;;3.55;;
27925;SDS011;15267;47.838;12.128;2023-04-05T14:49:28;11.65;;;4.43;;
27925;SDS011;15267;47.838;12.128;2023-04-05T14:51:54;7.32;;;4.25;;
27925;SDS011;15267;47.838;12.128;2023-04-05T14:54:21;7.93;;;4.90;;
27925;SDS011;15267;47.838;12.128;2023-04-05T14:56:46;6.30;;;3.78;;
27925;SDS011;15267;47.838;12.128;2023-04-05T14:59:12;5.38;;;4.15;;
27925;SDS011;15267;47.838;12.128;2023-04-05T15:01:38;5.28;;;4.00;;
27925;SDS011;15267;47.838;12.128;2023-04-05T15:04:08;6.40;;;4.20;;